CheckWX is a tool to help pilots better visualize weather data.  It is not intended as a substitute for an official pre-flight weather briefing.

20:57:12 UTC

LIRU TAF
Urbe Airport
Roma, Italy
TAF LIRU 091400Z 0915/0924 18008KT 9999 SCT040 TEMPO 0915/0917 SHRA

Dec-9@
15:00 UTC

Dec-9 @ 15:00 UTC

Dec-10@
00:00 UTC

Dec-10 @ 00:00 UTC

TAF LIRU 091400Z 0915/0924 18008KT 9999 SCT040
Wind
  • 180° at 8 KTS
Cloud Levels
  • Scattered at 4,000' AGL

Dec-9@
15:00 UTC

Dec-9 @ 15:00 UTC

Dec-9@
17:00 UTC

Dec-9 @ 17:00 UTC

TEMPO 0915/0917 SHRA

Expired

Conditions
Rain